createdAt,value
2024-04-25T00:01:43.539Z,96249.02
2024-04-25T00:04:10.842Z,96244.02
2024-04-25T00:06:38.191Z,96243.66
2024-04-25T00:09:05.516Z,96247.65
2024-04-25T00:11:32.856Z,96249.33
2024-04-25T00:14:00.341Z,96246.33
2024-04-25T00:16:27.800Z,96245.23
2024-04-25T00:18:55.106Z,96248.39
2024-04-25T00:21:22.450Z,96249.05
2024-04-25T00:23:49.802Z,96253.73
2024-04-25T00:26:17.208Z,96250.33
2024-04-25T00:28:44.481Z,96242.25
2024-04-25T00:31:11.794Z,96244.86
2024-04-25T00:33:39.175Z,96240.09
2024-04-25T00:36:09.724Z,96237.64
2024-04-25T00:38:36.948Z,96237.55
2024-04-25T00:41:04.872Z,96241.55
2024-04-25T00:43:32.758Z,96233.59
2024-04-25T00:46:00.165Z,96232.96
2024-04-25T00:48:31.539Z,96233.27
2024-04-25T00:51:02.614Z,96233.85
2024-04-25T00:53:30.659Z,96237.63
2024-04-25T00:55:58.247Z,96234.46
2024-04-25T00:58:25.635Z,96233.63
2024-04-25T01:00:53.059Z,96233.36
2024-04-25T01:03:20.505Z,96234.58
2024-04-25T01:05:47.973Z,96234.45
2024-04-25T01:08:16.111Z,96236.33
2024-04-25T01:10:44.105Z,96241.45
2024-04-25T01:13:11.661Z,96241.98
2024-04-25T01:15:38.917Z,96243.95
2024-04-25T01:18:06.272Z,96241.27
2024-04-25T01:20:36.158Z,96243.04
2024-04-25T01:23:04.893Z,96244.62
2024-04-25T01:25:32.198Z,96243.93
2024-04-25T01:27:59.480Z,96248.72
2024-04-25T01:30:28.298Z,96247.79
2024-04-25T01:32:55.935Z,96242.95
2024-04-25T01:35:24.926Z,96250.94
2024-04-25T01:37:52.190Z,96250.48
2024-04-25T01:40:19.559Z,96247.38
2024-04-25T01:42:46.834Z,96245.39
2024-04-25T01:45:14.166Z,96248.90
2024-04-25T01:47:41.640Z,96244.70
2024-04-25T01:50:09.059Z,96245.70
2024-04-25T01:52:36.413Z,96249.49
2024-04-25T01:55:03.911Z,96254.46
2024-04-25T01:57:31.325Z,96253.11
2024-04-25T01:59:58.666Z,96251.19
2024-04-25T02:02:26.099Z,96257.10
2024-04-25T02:04:53.532Z,96258.35
2024-04-25T02:07:21.563Z,96265.75
2024-04-25T02:09:48.775Z,96264.06
2024-04-25T02:12:16.130Z,96265.49
2024-04-25T02:14:43.428Z,96272.46
2024-04-25T02:17:11.233Z,96274.70
2024-04-25T02:19:38.556Z,96271.73
2024-04-25T02:22:24.531Z,96273.55
2024-04-25T02:25:10.464Z,96275.29
2024-04-25T02:27:37.779Z,96275.39
2024-04-25T02:30:05.931Z,96279.16
2024-04-25T02:32:33.315Z,96278.59
2024-04-25T02:35:00.698Z,96280.11
2024-04-25T02:37:28.404Z,96285.96
2024-04-25T02:39:55.783Z,96293.71
2024-04-25T02:42:23.051Z,96297.38
2024-04-25T02:44:50.373Z,96299.47
2024-04-25T02:47:17.855Z,96304.44
2024-04-25T02:49:45.279Z,96307.33
2024-04-25T02:52:12.545Z,96314.29
2024-04-25T02:54:39.820Z,96319.68
2024-04-25T02:57:07.132Z,96321.55
2024-04-25T02:59:34.609Z,96321.71
2024-04-25T03:02:04.446Z,96319.95
2024-04-25T03:04:31.925Z,96318.27
2024-04-25T03:06:59.217Z,96319.27
2024-04-25T03:09:26.467Z,96319.94
2024-04-25T03:11:53.843Z,96317.37
2024-04-25T03:14:21.883Z,96317.58
2024-04-25T03:16:49.376Z,96320.60
2024-04-25T03:19:16.757Z,96319.58
2024-04-25T03:21:43.990Z,96320.45
2024-04-25T03:24:11.423Z,96321.51
2024-04-25T03:26:38.795Z,96329.81
2024-04-25T03:29:06.997Z,96334.21
2024-04-25T03:31:34.613Z,96333.27
2024-04-25T03:34:01.984Z,96336.98
2024-04-25T03:36:29.263Z,96332.41
2024-04-25T03:38:56.994Z,96331.44
2024-04-25T03:41:25.348Z,96334.42
2024-04-25T03:43:52.652Z,96344.84
2024-04-25T03:46:19.906Z,96349.48
2024-04-25T03:48:47.778Z,96346.94
2024-04-25T03:51:15.253Z,96353.63
2024-04-25T03:53:42.661Z,96350.59
2024-04-25T03:56:10.075Z,96354.73
2024-04-25T03:58:37.446Z,96360.28
2024-04-25T04:01:04.921Z,96363.11
2024-04-25T04:03:32.247Z,96364.63
2024-04-25T04:05:59.537Z,96368.19
2024-04-25T04:08:27.383Z,96370.02
2024-04-25T04:10:54.803Z,96371.44
2024-04-25T04:13:22.111Z,96371.70
2024-04-25T04:15:49.829Z,96376.22
2024-04-25T04:18:17.219Z,96378.20
2024-04-25T04:20:46.096Z,96380.56
2024-04-25T04:23:13.498Z,96381.10
2024-04-25T04:25:41.088Z,96380.58
2024-04-25T04:28:09.688Z,96382.95
2024-04-25T04:30:38.336Z,96383.20
2024-04-25T04:33:05.958Z,96387.86
2024-04-25T04:35:33.407Z,96397.63
2024-04-25T04:38:01.179Z,96399.26
2024-04-25T04:40:29.369Z,96396.86
2024-04-25T04:42:56.638Z,96398.37
2024-04-25T04:45:23.990Z,96404.28
2024-04-25T04:47:51.342Z,96407.38
2024-04-25T04:50:20.506Z,96417.55
2024-04-25T04:52:48.095Z,96420.59
2024-04-25T04:55:15.477Z,96422.41
2024-04-25T04:57:42.857Z,96416.64
2024-04-25T05:00:11.678Z,96416.02
2024-04-25T05:02:39.120Z,96420.95
2024-04-25T05:05:07.314Z,96419.07
2024-04-25T05:07:38.292Z,96424.83
2024-04-25T05:10:06.286Z,96429.07
2024-04-25T05:12:33.672Z,96433.73
2024-04-25T05:15:01.070Z,96440.96
2024-04-25T05:17:28.531Z,96441.17
2024-04-25T05:19:55.951Z,96449.24
2024-04-25T05:22:23.393Z,96455.20
2024-04-25T05:24:50.730Z,96465.90
2024-04-25T05:27:18.061Z,96471.00
2024-04-25T05:29:45.495Z,96473.70
2024-04-25T05:32:12.897Z,96472.17
2024-04-25T05:34:40.821Z,96483.08
2024-04-25T05:37:08.152Z,96486.58
2024-04-25T05:39:35.558Z,96487.82
2024-04-25T05:42:03.002Z,96489.95
2024-04-25T05:44:30.491Z,96493.38
2024-04-25T05:46:58.923Z,96493.67
2024-04-25T05:49:26.351Z,96493.70
2024-04-25T05:51:53.725Z,96501.54
2024-04-25T05:54:21.031Z,96506.35
2024-04-25T05:56:48.521Z,96504.37
2024-04-25T05:59:17.119Z,96503.36
2024-04-25T06:01:44.556Z,96499.40
2024-04-25T06:04:12.001Z,96505.83
2024-04-25T06:06:39.335Z,96510.89
2024-04-25T06:09:06.677Z,96514.04
2024-04-25T06:11:34.978Z,96520.85
2024-04-25T06:14:02.789Z,96526.86
2024-04-25T06:16:30.129Z,96526.86
2024-04-25T06:18:57.626Z,96533.42
2024-04-25T06:21:24.929Z,96537.88
2024-04-25T06:23:52.195Z,96535.98
2024-04-25T06:26:19.546Z,96539.17
2024-04-25T06:28:47.020Z,96548.98
2024-04-25T06:31:14.588Z,96547.20
2024-04-25T06:33:41.930Z,96550.67
2024-04-25T06:36:09.724Z,96547.13
2024-04-25T06:38:37.438Z,96552.67
2024-04-25T06:41:04.973Z,96557.95
2024-04-25T06:43:35.113Z,96559.35
2024-04-25T06:46:03.233Z,96566.79
2024-04-25T06:48:30.671Z,96573.30
2024-04-25T06:50:58.159Z,96575.64
2024-04-25T06:53:25.596Z,96583.02
2024-04-25T06:55:53.028Z,96592.44
2024-04-25T06:58:20.989Z,96587.16
2024-04-25T07:00:48.506Z,96587.52
2024-04-25T07:05:29.622Z,96589.94
2024-04-25T07:07:57.760Z,96586.77
2024-04-25T07:10:25.001Z,96590.12
2024-04-25T07:12:52.306Z,96595.60
2024-04-25T07:15:22.598Z,96595.74
2024-04-25T07:17:51.118Z,96592.02
2024-04-25T07:20:18.749Z,96595.56
2024-04-25T07:22:46.189Z,96601.71
2024-04-25T07:25:15.078Z,96610.10
2024-04-25T07:27:42.383Z,96605.98
2024-04-25T07:30:13.282Z,96602.11
2024-04-25T07:32:41.025Z,96604.75
2024-04-25T07:35:08.634Z,96615.55
2024-04-25T07:37:36.603Z,96615.64
2024-04-25T07:40:05.469Z,96619.20
2024-04-25T07:42:32.828Z,96617.15
2024-04-25T07:45:02.574Z,96617.47
2024-04-25T07:47:30.385Z,96620.28
2024-04-25T07:49:58.873Z,96627.33
2024-04-25T07:52:29.535Z,96626.45
2024-04-25T07:54:57.254Z,96630.34
2024-04-25T07:57:26.659Z,96624.78
2024-04-25T07:59:55.700Z,96630.65
2024-04-25T08:02:23.617Z,96630.27
2024-04-25T08:04:51.124Z,96638.70
2024-04-25T08:07:18.531Z,96640.10
2024-04-25T08:09:45.853Z,96643.97
2024-04-25T08:12:13.202Z,96646.57
2024-04-25T08:14:45.490Z,96650.13
2024-04-25T08:17:13.165Z,96656.54
2024-04-25T08:19:40.455Z,96663.67
2024-04-25T08:22:07.835Z,96657.63
2024-04-25T08:24:35.334Z,96663.27
2024-04-25T08:27:02.695Z,96663.35
2024-04-25T08:29:30.167Z,96663.04
2024-04-25T08:31:57.556Z,96664.48
2024-04-25T08:34:25.139Z,96664.34
2024-04-25T08:36:52.564Z,96657.07
2024-04-25T08:39:19.879Z,96658.29
2024-04-25T08:41:49.322Z,96658.59
2024-04-25T08:44:17.380Z,96657.48
2024-04-25T08:46:45.388Z,96654.73
2024-04-25T08:49:12.682Z,96655.79
2024-04-25T08:51:40.398Z,96658.39
2024-04-25T08:54:07.919Z,96664.69
2024-04-25T08:56:35.343Z,96659.13
2024-04-25T08:59:02.797Z,96666.23
2024-04-25T09:01:30.675Z,96666.29
2024-04-25T09:03:59.043Z,96669.62
2024-04-25T09:06:29.167Z,96675.30
2024-04-25T09:08:57.020Z,96672.41
2024-04-25T09:11:24.939Z,96677.23
2024-04-25T09:13:56.118Z,96678.77
2024-04-25T09:16:26.728Z,96676.33
2024-04-25T09:18:54.314Z,96679.16
2024-04-25T09:21:21.764Z,96670.67
2024-04-25T09:23:49.259Z,96678.77
2024-04-25T09:26:16.805Z,96681.25
2024-04-25T09:28:45.150Z,96684.98
2024-04-25T09:31:12.935Z,96689.79
2024-04-25T09:33:40.491Z,96693.02
2024-04-25T09:36:11.015Z,96696.72
2024-04-25T09:38:38.394Z,96699.25
2024-04-25T09:41:05.937Z,96711.95
2024-04-25T09:43:33.388Z,96706.24
2024-04-25T09:46:02.869Z,96699.58
2024-04-25T09:48:32.791Z,96699.69
2024-04-25T09:51:07.127Z,96701.95
2024-04-25T09:54:01.306Z,96704.52
2024-04-25T09:56:30.588Z,96699.13
2024-04-25T09:59:07.690Z,96689.88
2024-04-25T10:01:35.271Z,96690.30
2024-04-25T10:04:02.752Z,96700.21
2024-04-25T10:06:30.695Z,96700.52
2024-04-25T10:08:58.762Z,96703.15
2024-04-25T10:11:29.420Z,96708.77
2024-04-25T10:13:57.062Z,96709.60
2024-04-25T10:16:24.398Z,96719.27
2024-04-25T10:18:52.718Z,96719.02
2024-04-25T10:21:21.046Z,96714.87
2024-04-25T10:23:50.819Z,96718.49
2024-04-25T10:26:18.978Z,96716.17
2024-04-25T10:29:04.475Z,96719.64
2024-04-25T10:31:36.907Z,96725.73
2024-04-25T10:34:08.180Z,96724.36
2024-04-25T10:36:36.838Z,96723.64
2024-04-25T10:39:08.494Z,96716.08
2024-04-25T10:41:38.717Z,96715.23
2024-04-25T10:44:06.938Z,96712.27
2024-04-25T10:46:34.855Z,96707.68
2024-04-25T10:49:04.178Z,96708.16
2024-04-25T10:51:33.242Z,96700.82
2024-04-25T10:54:00.828Z,96700.95
2024-04-25T10:56:28.264Z,96696.96
2024-04-25T10:58:56.840Z,96705.67
2024-04-25T11:01:25.118Z,96705.23
2024-04-25T11:03:54.614Z,96695.14
2024-04-25T11:06:22.698Z,96695.98
2024-04-25T11:08:50.319Z,96696.09
2024-04-25T11:11:17.934Z,96707.04
2024-04-25T11:13:45.782Z,96704.09
2024-04-25T11:16:13.150Z,96702.70
2024-04-25T11:18:40.900Z,96699.80
2024-04-25T11:21:08.818Z,96716.16
2024-04-25T11:23:36.611Z,96712.48
2024-04-25T11:26:05.383Z,96715.90
2024-04-25T11:28:33.216Z,96707.75
2024-04-25T11:31:03.006Z,96710.00
2024-04-25T11:33:32.152Z,96702.82
2024-04-25T11:35:59.697Z,96692.22
2024-04-25T11:38:30.009Z,96689.59
2024-04-25T11:40:57.552Z,96695.49
2024-04-25T11:43:26.482Z,96701.21
2024-04-25T11:45:53.974Z,96699.50
2024-04-25T11:48:23.154Z,96703.31
2024-04-25T11:50:50.988Z,96705.67
2024-04-25T11:53:18.524Z,96705.68
2024-04-25T11:55:47.235Z,96704.45
2024-04-25T11:58:14.846Z,96703.44
2024-04-25T12:00:49.105Z,96709.08
2024-04-25T12:03:16.863Z,96708.90
2024-04-25T12:05:44.275Z,96706.48
2024-04-25T12:08:11.897Z,96707.80
2024-04-25T12:10:39.720Z,96707.64
2024-04-25T12:13:09.335Z,96694.43
2024-04-25T12:15:37.101Z,96698.56
2024-04-25T12:18:05.500Z,96696.51
2024-04-25T12:20:33.150Z,96689.70
2024-04-25T12:23:00.584Z,96689.95
2024-04-25T12:25:27.942Z,96689.84
2024-04-25T12:27:55.299Z,96683.98
2024-04-25T12:30:22.672Z,96691.50
2024-04-25T12:32:50.072Z,96682.59
2024-04-25T12:35:17.804Z,96685.88
2024-04-25T12:37:45.274Z,96683.89
2024-04-25T12:40:12.798Z,96688.33
2024-04-25T12:42:40.143Z,96690.52
2024-04-25T12:45:07.712Z,96693.15
2024-04-25T12:47:36.286Z,96683.05
2024-04-25T12:50:04.471Z,96688.59
2024-04-25T12:52:32.730Z,96684.20
2024-04-25T12:55:00.503Z,96683.02
2024-04-25T12:57:28.056Z,96684.95
2024-04-25T12:59:55.634Z,96690.61
2024-04-25T13:02:23.230Z,96693.58
2024-04-25T13:04:50.771Z,96689.36
2024-04-25T13:07:18.399Z,96687.81
2024-04-25T13:09:45.872Z,96685.69
2024-04-25T13:12:13.315Z,96683.84
2024-04-25T13:14:40.698Z,96685.63
2024-04-25T13:17:08.230Z,96680.98
2024-04-25T13:19:35.580Z,96686.81
2024-04-25T13:22:06.370Z,96679.73
2024-04-25T13:24:34.020Z,96671.44
2024-04-25T13:27:03.158Z,96681.86
2024-04-25T13:29:31.234Z,96677.35
2024-04-25T13:31:58.786Z,96681.13
2024-04-25T13:34:26.377Z,96681.00
2024-04-25T13:36:56.055Z,96674.67
2024-04-25T13:39:23.515Z,96676.90
2024-04-25T13:41:51.080Z,96681.36
2024-04-25T13:44:18.696Z,96675.27
2024-04-25T13:46:46.136Z,96674.05
2024-04-25T13:49:13.887Z,96678.83
2024-04-25T13:51:41.578Z,96674.80
2024-04-25T13:54:09.005Z,96676.52
2024-04-25T13:56:36.515Z,96686.37
2024-04-25T13:59:03.937Z,96689.59
2024-04-25T14:01:31.317Z,96689.23
2024-04-25T14:03:58.771Z,96692.83
2024-04-25T14:06:26.331Z,96692.35
2024-04-25T14:08:53.693Z,96691.84
2024-04-25T14:11:21.162Z,96700.59
2024-04-25T14:13:49.528Z,96700.46
2024-04-25T14:16:17.135Z,96706.66
2024-04-25T14:18:44.679Z,96717.45
2024-04-25T14:21:12.440Z,96713.48
2024-04-25T14:23:41.357Z,96718.66
2024-04-25T14:26:27.509Z,96718.59
2024-04-25T14:28:57.235Z,96720.21
2024-04-25T14:31:24.661Z,96721.32
2024-04-25T14:33:52.194Z,96720.80
2024-04-25T14:36:19.681Z,96718.65
2024-04-25T14:38:47.047Z,96719.73
2024-04-25T14:41:14.766Z,96715.70
2024-04-25T14:43:43.019Z,96715.08
2024-04-25T14:46:10.750Z,96711.38
2024-04-25T14:48:38.269Z,96714.36
2024-04-25T14:51:05.860Z,96708.93
2024-04-25T14:53:33.407Z,96710.83
2024-04-25T14:56:00.974Z,96714.10
2024-04-25T14:58:29.375Z,96720.91
2024-04-25T15:00:57.100Z,96722.98
2024-04-25T15:03:24.574Z,96727.98
2024-04-25T15:05:52.192Z,96725.42
2024-04-25T15:08:19.658Z,96722.53
2024-04-25T15:10:47.713Z,96718.09
2024-04-25T15:13:21.596Z,96720.14
2024-04-25T15:15:52.376Z,96721.34
2024-04-25T15:18:19.973Z,96723.83
2024-04-25T15:20:47.362Z,96723.41
2024-04-25T15:23:15.232Z,96729.39
2024-04-25T15:25:42.754Z,96722.89
2024-04-25T15:28:11.454Z,96721.08
2024-04-25T15:30:41.980Z,96718.60
2024-04-25T15:33:09.504Z,96715.58
2024-04-25T15:35:37.126Z,96724.99
2024-04-25T15:38:04.969Z,96728.30
2024-04-25T15:40:32.456Z,96731.33
2024-04-25T15:42:59.874Z,96737.20
2024-04-25T15:45:28.362Z,96739.66
2024-04-25T15:47:55.973Z,96737.19
2024-04-25T15:50:23.553Z,96739.83
2024-04-25T15:52:51.008Z,96740.52
2024-04-25T15:55:18.456Z,96743.92
2024-04-25T15:57:46.122Z,96745.42
2024-04-25T16:00:14.184Z,96742.86
2024-04-25T16:02:41.726Z,96740.84
2024-04-25T16:05:09.519Z,96741.39
2024-04-25T16:07:38.017Z,96743.45
2024-04-25T16:10:06.188Z,96742.58
2024-04-25T16:12:33.948Z,96737.39
2024-04-25T16:15:01.626Z,96729.33
2024-04-25T16:17:29.029Z,96731.79
2024-04-25T16:19:56.650Z,96731.89
2024-04-25T16:22:23.949Z,96729.65
2024-04-25T16:24:51.267Z,96732.29
2024-04-25T16:27:18.701Z,96729.11
2024-04-25T16:29:46.632Z,96727.04
2024-04-25T16:32:14.263Z,96728.05
2024-04-25T16:34:41.884Z,96729.62
2024-04-25T16:37:09.441Z,96730.53
2024-04-25T16:39:36.851Z,96732.00
2024-04-25T16:42:04.722Z,96738.35
2024-04-25T16:44:32.239Z,96736.41
2024-04-25T16:47:02.188Z,96734.23
2024-04-25T16:49:29.548Z,96739.91
2024-04-25T16:51:57.070Z,96742.53
2024-04-25T16:54:28.408Z,96740.45
2024-04-25T16:56:56.356Z,96743.38
2024-04-25T16:59:23.860Z,96741.79
2024-04-25T17:01:51.293Z,96743.73
2024-04-25T17:04:18.634Z,96747.23
2024-04-25T17:06:52.491Z,96752.15
2024-04-25T17:09:20.939Z,96758.87
2024-04-25T17:11:48.349Z,96760.52
2024-04-25T17:14:16.199Z,96763.89
2024-04-25T17:16:44.993Z,96765.88
2024-04-25T17:19:12.547Z,96767.83
2024-04-25T17:21:42.259Z,96769.58
2024-04-25T17:24:09.651Z,96773.90
2024-04-25T17:26:41.444Z,96775.36
2024-04-25T17:29:09.667Z,96773.77
2024-04-25T17:31:38.271Z,96779.42
2024-04-25T17:34:06.394Z,96777.27
2024-04-25T17:36:33.975Z,96780.11
2024-04-25T17:39:01.339Z,96781.36
2024-04-25T17:41:28.622Z,96786.36
2024-04-25T17:43:56.128Z,96789.48
2024-04-25T17:46:23.489Z,96793.64
2024-04-25T17:48:51.783Z,96795.02
2024-04-25T17:51:21.125Z,96800.90
2024-04-25T17:53:49.601Z,96806.34
2024-04-25T17:56:17.793Z,96806.98
2024-04-25T17:58:46.101Z,96808.92
2024-04-25T18:01:13.604Z,96813.75
2024-04-25T18:03:41.085Z,96817.06
2024-04-25T18:06:10.573Z,96817.84
2024-04-25T18:08:38.280Z,96818.72
2024-04-25T18:11:05.627Z,96823.39
2024-04-25T18:13:33.315Z,96828.11
2024-04-25T18:16:01.298Z,96826.85
2024-04-25T18:18:29.291Z,96832.36
2024-04-25T18:20:56.996Z,96831.08
2024-04-25T18:23:24.456Z,96828.46
2024-04-25T18:25:52.004Z,96827.30
2024-04-25T18:28:20.946Z,96829.45
2024-04-25T18:30:48.553Z,96828.87
2024-04-25T18:33:16.119Z,96827.23
2024-04-25T18:35:43.621Z,96827.07
2024-04-25T18:38:11.144Z,96831.02
2024-04-25T18:40:38.497Z,96837.25
2024-04-25T18:43:07.341Z,96845.18
2024-04-25T18:45:34.804Z,96844.55
2024-04-25T18:48:02.377Z,96844.64
2024-04-25T18:50:30.135Z,96849.10
2024-04-25T18:52:57.567Z,96854.18
2024-04-25T18:55:25.022Z,96857.91
2024-04-25T18:57:52.372Z,96857.64
2024-04-25T19:00:19.839Z,96859.11
2024-04-25T19:02:47.491Z,96858.52
2024-04-25T19:05:15.352Z,96859.21
2024-04-25T19:07:43.225Z,96864.55
2024-04-25T19:10:10.584Z,96864.50
2024-04-25T19:12:42.010Z,96866.80
2024-04-25T19:15:10.049Z,96872.42
2024-04-25T19:17:37.478Z,96867.53
2024-04-25T19:22:34.232Z,96869.76
2024-04-25T19:25:01.703Z,96868.52
2024-04-25T19:27:29.045Z,96869.89
2024-04-25T19:29:58.160Z,96872.46
2024-04-25T19:32:26.158Z,96873.52
2024-04-25T19:34:55.693Z,96872.41
2024-04-25T19:37:23.182Z,96874.91
2024-04-25T19:39:50.847Z,96873.59
2024-04-25T19:42:20.058Z,96878.93
2024-04-25T19:44:47.623Z,96874.73
2024-04-25T19:47:15.145Z,96880.13
2024-04-25T19:49:42.679Z,96880.28
2024-04-25T19:52:10.960Z,96881.12
2024-04-25T19:54:38.455Z,96875.66
2024-04-25T19:57:05.808Z,96877.53
2024-04-25T19:59:33.617Z,96877.46
2024-04-25T20:02:01.779Z,96877.98
2024-04-25T20:04:29.420Z,96882.35
2024-04-25T20:06:56.934Z,96881.08
2024-04-25T20:09:24.389Z,96879.59
2024-04-25T20:11:52.031Z,96880.41
2024-04-25T20:14:20.261Z,96877.93
2024-04-25T20:16:49.812Z,96879.39
2024-04-25T20:19:36.141Z,96881.27
2024-04-25T20:22:03.592Z,96885.08
2024-04-25T20:24:30.996Z,96888.63
2024-04-25T20:26:58.507Z,96895.84
2024-04-25T20:29:29.642Z,96893.73
2024-04-25T20:31:57.750Z,96894.66
2024-04-25T20:34:25.233Z,96891.65
2024-04-25T20:36:53.041Z,96892.98
2024-04-25T20:39:21.405Z,96897.33
2024-04-25T20:41:49.052Z,96898.09
2024-04-25T20:44:17.806Z,96899.91
2024-04-25T20:46:45.340Z,96898.90
2024-04-25T20:49:12.872Z,96898.67
2024-04-25T20:51:42.638Z,96896.47
2024-04-25T20:54:11.978Z,96898.23
2024-04-25T20:56:42.718Z,96901.14
2024-04-25T20:59:10.184Z,96903.48
2024-04-25T21:01:40.392Z,96906.08
2024-04-25T21:04:07.819Z,96903.38
2024-04-25T21:06:41.838Z,96905.86
2024-04-25T21:09:10.966Z,96909.27
2024-04-25T21:11:38.967Z,96908.13
2024-04-25T21:14:06.456Z,96908.90
2024-04-25T21:16:44.215Z,96907.19
2024-04-25T21:19:11.734Z,96908.99
2024-04-25T21:21:40.379Z,96908.98
2024-04-25T21:24:07.859Z,96908.26
2024-04-25T21:26:35.311Z,96908.14
2024-04-25T21:29:02.761Z,96910.48
2024-04-25T21:31:30.216Z,96908.61
2024-04-25T21:33:57.640Z,96908.81
2024-04-25T21:36:27.073Z,96901.66
2024-04-25T21:38:54.615Z,96904.74
2024-04-25T21:41:22.205Z,96901.57
2024-04-25T21:43:49.869Z,96906.80
2024-04-25T21:46:17.434Z,96909.37
2024-04-25T21:48:46.906Z,96918.16
2024-04-25T21:51:16.139Z,96924.89
2024-04-25T21:53:43.483Z,96922.65
2024-04-25T21:56:11.020Z,96923.26
2024-04-25T21:58:38.451Z,96927.70
2024-04-25T22:01:06.296Z,96928.81
2024-04-25T22:03:34.895Z,96932.52
2024-04-25T22:06:02.592Z,96935.36
2024-04-25T22:08:30.097Z,96941.65
2024-04-25T22:10:57.886Z,96941.45
2024-04-25T22:13:25.243Z,96943.06
2024-04-25T22:15:52.705Z,96937.30
2024-04-25T22:18:20.131Z,96936.78
2024-04-25T22:20:47.684Z,96936.36
2024-04-25T22:23:15.280Z,96934.35
2024-04-25T22:25:42.557Z,96932.09
2024-04-25T22:28:10.089Z,96930.45
2024-04-25T22:30:37.570Z,96928.34
2024-04-25T22:33:05.343Z,96931.56
2024-04-25T22:35:32.812Z,96929.90
2024-04-25T22:38:00.225Z,96924.55
2024-04-25T22:40:27.604Z,96922.84
2024-04-25T22:42:54.933Z,96922.20
2024-04-25T22:45:25.224Z,96916.93
2024-04-25T22:47:59.318Z,96920.23
2024-04-25T22:50:26.766Z,96927.69
2024-04-25T22:52:54.183Z,96927.64
2024-04-25T22:55:21.646Z,96931.23
2024-04-25T22:57:49.021Z,96930.27
2024-04-25T23:00:16.981Z,96931.43
2024-04-25T23:02:44.874Z,96935.55
2024-04-25T23:05:12.595Z,96935.90
2024-04-25T23:07:39.960Z,96939.71
2024-04-25T23:10:08.362Z,96943.05
2024-04-25T23:12:35.796Z,96943.19
2024-04-25T23:15:04.587Z,96947.98
2024-04-25T23:17:32.053Z,96948.64
2024-04-25T23:19:59.627Z,96949.08
2024-04-25T23:22:27.153Z,96950.36
2024-04-25T23:24:54.617Z,96954.78
2024-04-25T23:27:22.096Z,96954.52
2024-04-25T23:29:49.447Z,96955.71
2024-04-25T23:32:17.060Z,96956.77
2024-04-25T23:34:44.411Z,96957.71
2024-04-25T23:37:12.178Z,96959.70
2024-04-25T23:39:40.340Z,96958.88
2024-04-25T23:42:09.529Z,96956.42
2024-04-25T23:44:38.279Z,96961.09
2024-04-25T23:47:07.361Z,96961.04
2024-04-25T23:49:35.001Z,96959.67
2024-04-25T23:52:02.386Z,96963.90
2024-04-25T23:54:29.900Z,96962.46
2024-04-25T23:56:57.303Z,96960.20
2024-04-25T23:59:24.954Z,96964.41
